createdAt,value
2023-04-22T00:00:41.206Z,19.45
2023-04-22T00:03:44.931Z,17.83
2023-04-22T00:06:47.207Z,15.75
2023-04-22T00:09:49.479Z,18.58
2023-04-22T00:12:51.488Z,20.30
2023-04-22T00:15:53.600Z,13.43
2023-04-22T00:18:55.607Z,19.08
2023-04-22T00:21:57.645Z,17.17
2023-04-22T00:24:59.679Z,22.02
2023-04-22T00:28:01.706Z,23.47
2023-04-22T00:31:04.915Z,21.05
2023-04-22T00:34:07.344Z,21.33
2023-04-22T00:37:09.329Z,22.57
2023-04-22T00:40:11.600Z,20.35
2023-04-22T00:43:13.946Z,18.65
2023-04-22T00:46:19.623Z,20.95
2023-04-22T00:49:21.956Z,18.80
2023-04-22T00:52:24.079Z,17.63
2023-04-22T00:55:26.348Z,20.50
2023-04-22T00:58:29.259Z,21.75
2023-04-22T01:01:31.849Z,22.35
2023-04-22T01:04:34.688Z,22.73
2023-04-22T01:07:36.860Z,19.60
2023-04-22T01:10:39.013Z,20.53
2023-04-22T01:13:41.706Z,20.58
2023-04-22T01:16:44.388Z,21.38
2023-04-22T01:19:47.643Z,21.13
2023-04-22T01:22:50.841Z,23.73
2023-04-22T01:25:52.897Z,19.33
2023-04-22T01:28:54.943Z,21.65
2023-04-22T01:31:57.571Z,21.95
2023-04-22T01:34:59.593Z,20.38
2023-04-22T01:38:01.764Z,19.95
2023-04-22T01:41:03.996Z,19.35
2023-04-22T01:44:06.542Z,22.03
2023-04-22T01:47:09.475Z,18.35
2023-04-22T01:50:11.514Z,22.17
2023-04-22T01:53:14.169Z,19.73
2023-04-22T01:56:16.166Z,22.63
2023-04-22T01:59:18.443Z,17.75
2023-04-22T02:02:20.701Z,18.77
2023-04-22T02:05:22.836Z,21.17
2023-04-22T02:08:24.813Z,17.15
2023-04-22T02:11:26.870Z,16.85
2023-04-22T02:14:28.948Z,18.85
2023-04-22T02:17:31.195Z,20.65
2023-04-22T02:20:33.144Z,16.70
2023-04-22T02:23:35.466Z,19.45
2023-04-22T02:26:37.496Z,17.57
2023-04-22T02:29:39.984Z,16.83
2023-04-22T02:32:43.125Z,19.30
2023-04-22T02:35:45.359Z,17.53
2023-04-22T02:38:52.143Z,19.00
2023-04-22T02:41:54.748Z,18.52
2023-04-22T02:44:56.961Z,18.40
2023-04-22T02:47:59.063Z,21.35
2023-04-22T02:51:01.177Z,17.88
2023-04-22T02:54:03.346Z,17.83
2023-04-22T02:57:05.417Z,15.40
2023-04-22T03:00:08.261Z,20.02
2023-04-22T03:03:10.830Z,20.35
2023-04-22T03:06:12.928Z,18.17
2023-04-22T03:09:14.990Z,17.80
2023-04-22T03:12:17.082Z,19.33
2023-04-22T03:15:21.232Z,19.02
2023-04-22T03:18:23.772Z,18.40
2023-04-22T03:21:25.822Z,16.05
2023-04-22T03:24:28.228Z,19.92
2023-04-22T03:27:30.352Z,17.60
2023-04-22T03:30:32.504Z,19.85
2023-04-22T03:33:34.542Z,19.27
2023-04-22T03:36:43.742Z,21.30
2023-04-22T03:39:45.934Z,22.85
2023-04-22T03:42:48.189Z,21.85
2023-04-22T03:45:53.250Z,29.77
2023-04-22T03:48:59.649Z,21.73
2023-04-22T03:52:04.705Z,22.73
2023-04-22T03:55:07.426Z,21.50
2023-04-22T03:58:10.904Z,23.33
2023-04-22T04:01:13.491Z,21.00
2023-04-22T04:04:18.873Z,19.90
2023-04-22T04:07:26.926Z,18.13
2023-04-22T04:10:29.023Z,14.88
2023-04-22T04:13:33.862Z,18.65
2023-04-22T04:16:56.062Z,19.85
2023-04-22T04:20:07.537Z,19.98
2023-04-22T04:23:10.955Z,23.58
2023-04-22T04:26:15.106Z,22.63
2023-04-22T04:29:20.882Z,24.87
2023-04-22T04:32:45.607Z,23.25
2023-04-22T04:35:49.357Z,20.88
2023-04-22T04:38:56.606Z,23.03
2023-04-22T04:42:00.519Z,24.75
2023-04-22T04:45:05.195Z,22.85
2023-04-22T04:48:08.072Z,21.70
2023-04-22T04:51:13.127Z,21.02
2023-04-22T04:54:22.572Z,19.33
2023-04-22T04:57:24.997Z,18.35
2023-04-22T05:00:27.354Z,19.43
2023-04-22T05:03:29.953Z,19.98
2023-04-22T05:06:32.926Z,15.63
2023-04-22T05:09:40.095Z,13.83
2023-04-22T05:12:44.267Z,14.82
2023-04-22T05:15:50.314Z,12.43
2023-04-22T05:18:53.155Z,15.57
2023-04-22T05:21:55.369Z,15.67
2023-04-22T05:24:57.547Z,14.93
2023-04-22T05:27:59.779Z,15.70
2023-04-22T05:31:06.930Z,12.37
2023-04-22T05:34:09.174Z,11.48
2023-04-22T05:37:12.446Z,13.95
2023-04-22T05:40:18.523Z,12.50
2023-04-22T05:43:20.789Z,14.55
2023-04-22T05:46:43.059Z,13.23
2023-04-22T05:49:45.528Z,13.80
2023-04-22T05:52:47.718Z,13.93
2023-04-22T05:55:52.078Z,14.53
2023-04-22T05:58:55.728Z,14.35
2023-04-22T06:01:59.189Z,17.50
2023-04-22T06:05:01.876Z,14.30
2023-04-22T06:08:04.043Z,12.50
2023-04-22T06:11:06.046Z,12.85
2023-04-22T06:14:10.579Z,17.20
2023-04-22T06:17:13.226Z,13.27
2023-04-22T06:20:15.567Z,10.43
2023-04-22T06:23:17.653Z,14.63
2023-04-22T06:26:19.790Z,14.00
2023-04-22T06:29:21.850Z,12.20
2023-04-22T06:32:23.857Z,14.03
2023-04-22T06:35:26.152Z,13.27
2023-04-22T06:38:29.974Z,12.23
2023-04-22T06:41:59.095Z,11.05
2023-04-22T06:45:15.617Z,12.50
2023-04-22T06:48:27.409Z,15.82
2023-04-22T06:51:48.090Z,12.77
2023-04-22T06:54:50.079Z,14.18
2023-04-22T06:57:52.239Z,10.27
2023-04-22T07:00:54.460Z,11.50
2023-04-22T07:03:56.637Z,10.57
2023-04-22T07:06:59.237Z,13.98
2023-04-22T07:10:01.310Z,13.38
2023-04-22T07:13:09.997Z,10.52
2023-04-22T07:16:12.029Z,9.90
2023-04-22T07:19:14.198Z,10.13
2023-04-22T07:22:16.454Z,10.23
2023-04-22T07:25:18.491Z,7.28
2023-04-22T07:28:20.609Z,9.43
2023-04-22T07:31:22.647Z,10.67
2023-04-22T07:34:24.668Z,11.05
2023-04-22T07:37:26.712Z,14.80
2023-04-22T07:40:28.694Z,11.88
2023-04-22T07:43:30.691Z,7.93
2023-04-22T07:46:32.796Z,9.63
2023-04-22T07:49:34.921Z,8.38
2023-04-22T07:52:36.936Z,8.75
2023-04-22T07:55:38.935Z,10.63
2023-04-22T07:58:40.985Z,10.77
2023-04-22T08:01:43.084Z,9.67
2023-04-22T08:04:45.293Z,16.75
2023-04-22T08:07:47.468Z,9.45
2023-04-22T08:10:49.519Z,9.48
2023-04-22T08:13:51.846Z,10.43
2023-04-22T08:16:53.976Z,8.60
2023-04-22T08:19:56.031Z,7.47
2023-04-22T08:23:00.646Z,12.02
2023-04-22T08:26:03.296Z,8.18
2023-04-22T08:29:05.743Z,8.10
2023-04-22T08:32:07.998Z,7.97
2023-04-22T08:35:10.081Z,8.10
2023-04-22T08:38:12.085Z,9.27
2023-04-22T08:41:14.230Z,10.85
2023-04-22T08:44:16.721Z,7.40
2023-04-22T08:47:19.288Z,9.33
2023-04-22T08:50:25.393Z,8.88
2023-04-22T08:53:27.478Z,7.05
2023-04-22T08:56:30.035Z,7.45
2023-04-22T08:59:32.165Z,11.43
2023-04-22T09:02:34.244Z,9.17
2023-04-22T09:05:37.640Z,8.73
2023-04-22T09:08:40.272Z,7.85
2023-04-22T09:11:42.356Z,9.20
2023-04-22T09:14:44.594Z,9.00
2023-04-22T09:17:46.680Z,9.03
2023-04-22T09:20:49.200Z,8.57
2023-04-22T09:23:52.546Z,7.90
2023-04-22T09:26:55.828Z,8.82
2023-04-22T09:29:57.912Z,7.47
2023-04-22T09:33:04.557Z,9.30
2023-04-22T09:36:10.170Z,6.88
2023-04-22T09:39:12.244Z,8.63
2023-04-22T09:42:14.271Z,8.45
2023-04-22T09:45:24.941Z,7.43
2023-04-22T09:48:27.042Z,7.60
2023-04-22T09:51:29.480Z,7.80
2023-04-22T09:54:31.497Z,7.10
2023-04-22T09:57:33.518Z,10.07
2023-04-22T10:00:39.537Z,9.20
2023-04-22T10:03:41.652Z,9.33
2023-04-22T10:06:43.771Z,10.55
2023-04-22T10:09:45.886Z,6.70
2023-04-22T10:12:49.132Z,8.93
2023-04-22T10:15:52.548Z,6.68
2023-04-22T10:18:54.833Z,7.83
2023-04-22T10:21:57.854Z,6.97
2023-04-22T10:25:00.011Z,9.70
2023-04-22T10:28:06.223Z,8.48
2023-04-22T10:31:19.901Z,9.95
2023-04-22T10:34:21.966Z,5.93
2023-04-22T10:37:25.516Z,7.45
2023-04-22T10:40:27.511Z,7.03
2023-04-22T10:43:42.569Z,9.93
2023-04-22T10:46:50.591Z,8.15
2023-04-22T10:50:08.684Z,6.37
2023-04-22T10:53:36.874Z,7.22
2023-04-22T10:56:58.854Z,6.50
2023-04-22T11:00:00.957Z,5.95
2023-04-22T11:03:05.896Z,7.25
2023-04-22T11:06:18.450Z,10.70
2023-04-22T11:09:21.488Z,8.43
2023-04-22T11:12:35.952Z,6.72
2023-04-22T11:15:39.084Z,6.57
2023-04-22T11:18:41.333Z,7.45
2023-04-22T11:21:43.746Z,5.83
2023-04-22T11:24:55.762Z,7.07
2023-04-22T11:27:57.939Z,9.38
2023-04-22T11:31:07.149Z,6.47
2023-04-22T11:34:09.495Z,8.50
2023-04-22T11:37:11.519Z,8.30
2023-04-22T11:40:36.742Z,6.72
2023-04-22T11:43:49.497Z,9.82
2023-04-22T11:46:51.537Z,7.78
2023-04-22T11:49:57.319Z,7.10
2023-04-22T11:53:03.596Z,9.50
2023-04-22T11:56:05.540Z,5.70
2023-04-22T11:59:09.215Z,8.05
2023-04-22T12:02:11.485Z,6.63
2023-04-22T12:05:13.678Z,6.75
2023-04-22T12:08:17.219Z,7.70
2023-04-22T12:11:21.376Z,7.53
2023-04-22T12:14:33.272Z,7.15
2023-04-22T12:17:35.449Z,9.40
2023-04-22T12:20:37.939Z,6.28
2023-04-22T12:24:04.921Z,9.07
2023-04-22T12:27:06.964Z,7.38
2023-04-22T12:30:09.217Z,6.57
2023-04-22T12:33:11.714Z,7.05
2023-04-22T12:36:13.762Z,9.02
2023-04-22T12:39:15.881Z,7.77
2023-04-22T12:42:17.842Z,7.97
2023-04-22T12:45:20.021Z,6.65
2023-04-22T12:48:22.093Z,7.63
2023-04-22T12:51:24.198Z,7.32
2023-04-22T12:54:26.246Z,7.60
2023-04-22T12:57:28.269Z,6.57
2023-04-22T13:00:30.284Z,7.65
2023-04-22T13:03:32.455Z,7.97
2023-04-22T13:06:34.699Z,7.68
2023-04-22T13:09:36.748Z,9.67
2023-04-22T13:12:39.344Z,9.85
2023-04-22T13:15:41.410Z,6.57
2023-04-22T13:18:43.490Z,7.10
2023-04-22T13:21:45.539Z,8.27
2023-04-22T13:24:47.586Z,7.87
2023-04-22T13:27:49.591Z,6.40
2023-04-22T13:30:51.987Z,8.15
2023-04-22T13:33:55.342Z,8.00
2023-04-22T13:36:57.716Z,5.50
2023-04-22T13:39:59.723Z,7.20
2023-04-22T13:43:01.890Z,6.10
2023-04-22T13:46:03.950Z,6.25
2023-04-22T13:49:06.046Z,6.50
2023-04-22T13:52:08.182Z,5.38
2023-04-22T13:55:10.533Z,6.00
2023-04-22T13:58:12.504Z,6.28
2023-04-22T14:01:14.573Z,7.70
2023-04-22T14:04:16.637Z,7.80
2023-04-22T14:07:18.689Z,6.85
2023-04-22T14:10:22.166Z,6.40
2023-04-22T14:13:24.173Z,9.27
2023-04-22T14:16:26.353Z,6.57
2023-04-22T14:19:30.330Z,7.07
2023-04-22T14:22:32.504Z,6.45
2023-04-22T14:25:34.513Z,8.90
2023-04-22T14:28:37.064Z,7.22
2023-04-22T14:31:39.068Z,5.75
2023-04-22T14:34:41.066Z,8.07
2023-04-22T14:37:45.107Z,8.00
2023-04-22T14:40:47.442Z,7.13
2023-04-22T14:43:49.633Z,8.00
2023-04-22T14:46:51.663Z,7.85
2023-04-22T14:49:53.697Z,12.00
2023-04-22T14:52:55.970Z,7.15
2023-04-22T14:55:58.064Z,9.00
2023-04-22T14:59:00.132Z,8.68
2023-04-22T15:02:02.277Z,8.32
2023-04-22T15:05:04.529Z,9.50
2023-04-22T15:08:06.616Z,6.55
2023-04-22T15:11:08.630Z,6.47
2023-04-22T15:14:10.591Z,7.32
2023-04-22T15:17:13.024Z,17.48
2023-04-22T15:20:15.111Z,11.10
2023-04-22T15:23:17.127Z,30.45
2023-04-22T15:26:19.130Z,12.10
2023-04-22T15:29:21.482Z,8.30
2023-04-22T15:32:23.513Z,10.60
2023-04-22T15:35:25.533Z,8.48
2023-04-22T15:38:27.840Z,6.38
2023-04-22T15:41:29.814Z,8.80
2023-04-22T15:44:31.847Z,7.38
2023-04-22T15:47:34.017Z,6.50
2023-04-22T15:50:38.239Z,51.13
2023-04-22T15:53:41.662Z,11.35
2023-04-22T15:56:43.695Z,11.23
2023-04-22T15:59:46.927Z,4.82
2023-04-22T16:02:55.542Z,7.55
2023-04-22T16:05:57.958Z,5.68
2023-04-22T16:08:59.985Z,8.93
2023-04-22T16:12:02.101Z,8.13
2023-04-22T16:15:04.352Z,11.25
2023-04-22T16:18:06.860Z,12.35
2023-04-22T16:21:10.358Z,10.02
2023-04-22T16:24:14.633Z,13.02
2023-04-22T16:27:18.131Z,23.00
2023-04-22T16:30:20.266Z,21.50
2023-04-22T16:33:22.299Z,16.15
2023-04-22T16:36:24.616Z,32.47
2023-04-22T16:39:26.566Z,22.88
2023-04-22T16:42:29.225Z,8.20
2023-04-22T16:45:31.764Z,10.25
2023-04-22T16:48:33.791Z,8.73
2023-04-22T16:51:35.909Z,9.73
2023-04-22T16:54:37.999Z,11.23
2023-04-22T16:57:40.053Z,15.07
2023-04-22T17:00:42.085Z,25.92
2023-04-22T17:03:44.264Z,14.85
2023-04-22T17:06:46.575Z,14.38
2023-04-22T17:09:48.981Z,20.90
2023-04-22T17:12:53.034Z,17.63
2023-04-22T17:15:55.073Z,16.90
2023-04-22T17:18:57.124Z,16.90
2023-04-22T17:21:59.194Z,19.95
2023-04-22T17:25:01.211Z,37.42
2023-04-22T17:28:03.489Z,29.10
2023-04-22T17:31:05.631Z,29.80
2023-04-22T17:34:07.751Z,24.80
2023-04-22T17:37:09.746Z,14.85
2023-04-22T17:40:11.821Z,12.40
2023-04-22T17:43:13.932Z,13.73
2023-04-22T17:46:16.295Z,24.02
2023-04-22T17:49:18.323Z,31.45
2023-04-22T17:52:20.358Z,23.17
2023-04-22T17:55:22.519Z,24.73
2023-04-22T17:58:25.601Z,20.53
2023-04-22T18:01:29.626Z,21.38
2023-04-22T18:04:31.999Z,37.42
2023-04-22T18:07:34.115Z,67.53
2023-04-22T18:10:36.514Z,111.30
2023-04-22T18:13:39.436Z,65.93
2023-04-22T18:16:41.501Z,56.47
2023-04-22T18:19:44.695Z,38.63
2023-04-22T18:22:48.252Z,57.00
2023-04-22T18:25:50.406Z,47.08
2023-04-22T18:28:52.478Z,40.30
2023-04-22T18:31:54.552Z,32.15
2023-04-22T18:34:56.625Z,26.25
2023-04-22T18:37:58.617Z,26.88
2023-04-22T18:41:00.616Z,29.50
2023-04-22T18:44:02.676Z,29.93
2023-04-22T18:47:05.216Z,32.47
2023-04-22T18:50:07.558Z,50.88
2023-04-22T18:53:09.729Z,50.78
2023-04-22T18:56:11.796Z,48.50
2023-04-22T18:59:13.836Z,41.67
2023-04-22T19:02:16.161Z,47.70
2023-04-22T19:05:18.443Z,48.30
2023-04-22T19:08:20.484Z,62.65
2023-04-22T19:11:22.774Z,51.22
2023-04-22T19:14:24.970Z,50.83
2023-04-22T19:17:27.485Z,53.20
2023-04-22T19:20:29.684Z,53.38
2023-04-22T19:23:31.773Z,97.70
2023-04-22T19:26:34.088Z,50.25
2023-04-22T19:29:36.132Z,36.10
2023-04-22T19:32:38.336Z,29.48
2023-04-22T19:35:40.418Z,25.58
2023-04-22T19:38:43.382Z,18.08
2023-04-22T19:41:45.399Z,17.38
2023-04-22T19:44:48.452Z,16.17
2023-04-22T19:47:50.668Z,15.57
2023-04-22T19:50:52.723Z,19.88
2023-04-22T19:53:54.797Z,20.60
2023-04-22T19:56:58.581Z,23.30
2023-04-22T20:00:01.627Z,22.40
2023-04-22T20:03:04.381Z,25.75
2023-04-22T20:06:07.271Z,30.00
2023-04-22T20:09:10.442Z,25.98
2023-04-22T20:12:12.704Z,21.65
2023-04-22T20:15:15.057Z,20.23
2023-04-22T20:18:17.792Z,21.73
2023-04-22T20:21:20.054Z,22.20
2023-04-22T20:24:22.124Z,20.50
2023-04-22T20:27:25.772Z,18.08
2023-04-22T20:30:28.017Z,13.83
2023-04-22T20:33:30.052Z,13.73
2023-04-22T20:36:32.912Z,17.02
2023-04-22T20:39:35.737Z,17.38
2023-04-22T20:42:37.852Z,16.40
2023-04-22T20:45:40.235Z,15.27
2023-04-22T20:48:42.725Z,14.02
2023-04-22T20:51:44.700Z,14.55
2023-04-22T20:54:51.198Z,13.48
2023-04-22T20:57:53.235Z,12.23
2023-04-22T21:00:55.791Z,15.47
2023-04-22T21:03:58.522Z,15.43
2023-04-22T21:07:04.078Z,12.70
2023-04-22T21:10:06.533Z,14.48
2023-04-22T21:13:08.746Z,20.10
2023-04-22T21:16:11.327Z,22.60
2023-04-22T21:19:13.618Z,24.02
2023-04-22T21:22:18.954Z,19.63
2023-04-22T21:25:21.609Z,32.38
2023-04-22T21:28:24.003Z,34.67
2023-04-22T21:31:27.181Z,26.83
2023-04-22T21:34:29.753Z,31.52
2023-04-22T21:37:33.318Z,29.17
2023-04-22T21:40:35.939Z,24.13
2023-04-22T21:43:37.961Z,24.03
2023-04-22T21:46:40.091Z,43.20
2023-04-22T21:49:43.173Z,41.45
2023-04-22T21:52:45.150Z,40.65
2023-04-22T21:55:47.170Z,44.78
2023-04-22T21:58:49.191Z,38.67
2023-04-22T22:01:51.639Z,39.72
2023-04-22T22:04:53.869Z,36.33
2023-04-22T22:07:56.063Z,31.75
2023-04-22T22:10:58.132Z,35.53
2023-04-22T22:14:00.194Z,40.67
2023-04-22T22:17:02.240Z,46.53
2023-04-22T22:20:06.372Z,34.88
2023-04-22T22:23:08.454Z,33.45
2023-04-22T22:26:10.461Z,40.57
2023-04-22T22:29:15.654Z,40.05
2023-04-22T22:32:17.768Z,38.65
2023-04-22T22:35:19.818Z,33.53
2023-04-22T22:38:21.889Z,35.77
2023-04-22T22:41:23.931Z,32.50
2023-04-22T22:44:25.953Z,37.58
2023-04-22T22:47:27.983Z,31.85
2023-04-22T22:50:30.046Z,33.88
2023-04-22T22:53:34.378Z,36.28
2023-04-22T22:56:36.434Z,34.35
2023-04-22T22:59:39.269Z,36.90
2023-04-22T23:02:41.608Z,34.83
2023-04-22T23:05:43.738Z,40.25
2023-04-22T23:08:45.791Z,37.05
2023-04-22T23:11:52.124Z,30.90
2023-04-22T23:14:54.172Z,38.55
2023-04-22T23:17:56.344Z,33.40
2023-04-22T23:20:59.894Z,39.08
2023-04-22T23:24:02.013Z,34.27
2023-04-22T23:27:04.584Z,39.13
2023-04-22T23:30:06.974Z,34.40
2023-04-22T23:33:09.590Z,39.17
2023-04-22T23:36:12.693Z,31.27
2023-04-22T23:39:14.741Z,34.80
2023-04-22T23:42:16.766Z,31.70
2023-04-22T23:45:18.821Z,34.93
2023-04-22T23:48:20.892Z,39.05
2023-04-22T23:51:23.004Z,45.10
2023-04-22T23:54:25.189Z,39.97
2023-04-22T23:57:27.305Z,46.60
